createdAt,value
2018-02-20T00:01:32.068Z,60.60
2018-02-20T00:03:59.692Z,60.50
2018-02-20T00:06:28.468Z,60.40
2018-02-20T00:08:56.538Z,60.80
2018-02-20T00:11:24.234Z,60.70
2018-02-20T00:13:51.878Z,60.60
2018-02-20T00:16:19.404Z,60.90
2018-02-20T00:21:21.460Z,61.20
2018-02-20T00:23:49.000Z,61.40
2018-02-20T00:26:16.641Z,61.10
2018-02-20T00:28:44.935Z,61.10
2018-02-20T00:31:12.504Z,61.10
2018-02-20T00:33:40.007Z,61.30
2018-02-20T00:36:07.560Z,61.30
2018-02-20T00:38:35.228Z,61.20
2018-02-20T00:41:02.746Z,61.00
2018-02-20T00:43:30.420Z,61.00
2018-02-20T00:45:58.128Z,61.10
2018-02-20T00:48:25.741Z,61.30
2018-02-20T00:50:53.267Z,61.40
2018-02-20T00:53:20.825Z,62.30
2018-02-20T00:55:48.533Z,61.90
2018-02-20T00:58:16.064Z,62.30
2018-02-20T01:00:43.586Z,62.30
2018-02-20T01:03:11.213Z,62.10
2018-02-20T01:05:38.712Z,62.10
2018-02-20T01:08:06.249Z,62.30
2018-02-20T01:10:33.914Z,62.40
2018-02-20T01:13:01.439Z,62.50
2018-02-20T01:15:29.043Z,62.60
2018-02-20T01:17:56.535Z,63.00
2018-02-20T01:20:24.072Z,63.10
2018-02-20T01:22:51.773Z,63.30
2018-02-20T01:25:19.344Z,63.50
2018-02-20T01:27:47.037Z,63.90
2018-02-20T01:30:14.538Z,63.90
2018-02-20T01:32:42.458Z,64.20
2018-02-20T01:35:09.960Z,64.60
2018-02-20T01:37:37.519Z,64.60
2018-02-20T01:40:05.890Z,64.80
2018-02-20T01:42:33.408Z,64.70
2018-02-20T01:45:00.979Z,64.50
2018-02-20T01:47:28.503Z,64.50
2018-02-20T01:49:56.152Z,64.50
2018-02-20T01:52:23.779Z,64.20
2018-02-20T01:54:51.415Z,64.40
2018-02-20T01:57:19.128Z,64.50
2018-02-20T01:59:47.404Z,64.50
2018-02-20T02:02:15.500Z,64.50
2018-02-20T02:04:43.188Z,64.70
2018-02-20T02:07:10.723Z,64.50
2018-02-20T02:09:38.258Z,64.50
2018-02-20T02:12:06.598Z,64.60
2018-02-20T02:14:34.124Z,64.50
2018-02-20T02:17:01.649Z,64.50
2018-02-20T02:19:30.081Z,65.00
2018-02-20T02:21:57.584Z,65.00
2018-02-20T02:24:25.938Z,65.10
2018-02-20T02:26:53.461Z,65.00
2018-02-20T02:29:20.973Z,65.10
2018-02-20T02:31:49.267Z,65.20
2018-02-20T02:34:16.790Z,66.00
2018-02-20T02:36:44.337Z,65.40
2018-02-20T02:39:11.874Z,65.60
2018-02-20T02:41:39.396Z,65.70
2018-02-20T02:44:07.291Z,65.60
2018-02-20T02:46:34.961Z,65.90
2018-02-20T02:49:02.510Z,65.90
2018-02-20T02:51:30.042Z,65.90
2018-02-20T02:53:58.498Z,66.10
2018-02-20T02:56:27.547Z,66.00
2018-02-20T02:58:55.095Z,65.90
2018-02-20T03:01:22.609Z,66.00
2018-02-20T03:03:50.164Z,66.10
2018-02-20T03:06:17.879Z,66.20
2018-02-20T03:08:45.860Z,66.30
2018-02-20T03:11:13.455Z,66.30
2018-02-20T03:13:41.184Z,66.60
2018-02-20T03:16:08.735Z,66.70
2018-02-20T03:18:37.010Z,66.90
2018-02-20T03:21:04.711Z,67.00
2018-02-20T03:23:32.352Z,67.00
2018-02-20T03:25:59.894Z,66.90
2018-02-20T03:28:27.481Z,67.20
2018-02-20T03:30:55.290Z,67.30
2018-02-20T03:33:22.822Z,67.50
2018-02-20T03:35:50.383Z,67.80
2018-02-20T03:38:17.893Z,68.00
2018-02-20T03:40:46.503Z,68.30
2018-02-20T03:43:14.082Z,68.30
2018-02-20T03:45:41.594Z,68.30
2018-02-20T03:48:09.439Z,68.40
2018-02-20T03:50:37.003Z,68.40
2018-02-20T03:53:04.591Z,68.70
2018-02-20T03:55:32.150Z,68.80
2018-02-20T03:57:59.712Z,68.80
2018-02-20T04:00:27.282Z,69.30
2018-02-20T04:02:54.835Z,69.60
2018-02-20T04:05:22.701Z,69.80
2018-02-20T04:07:50.273Z,70.00
2018-02-20T04:10:17.828Z,70.00
2018-02-20T04:12:45.365Z,69.90
2018-02-20T04:15:12.950Z,70.40
2018-02-20T04:17:41.341Z,70.50
2018-02-20T04:20:08.869Z,70.50
2018-02-20T04:22:36.652Z,70.70
2018-02-20T04:25:04.173Z,70.60
2018-02-20T04:27:32.580Z,71.00
2018-02-20T04:30:00.717Z,70.90
2018-02-20T04:32:28.562Z,71.20
2018-02-20T04:34:56.937Z,70.70
2018-02-20T04:37:24.473Z,70.70
2018-02-20T04:39:52.008Z,70.80
2018-02-20T04:42:19.533Z,70.70
2018-02-20T04:44:47.130Z,70.90
2018-02-20T04:47:14.648Z,70.70
2018-02-20T04:49:42.183Z,70.80
2018-02-20T04:52:11.507Z,70.90
2018-02-20T04:54:39.056Z,70.90
2018-02-20T04:57:06.581Z,71.00
2018-02-20T04:59:34.227Z,71.00
2018-02-20T05:02:01.890Z,71.10
2018-02-20T05:04:29.459Z,71.10
2018-02-20T05:06:57.008Z,71.00
2018-02-20T05:09:25.320Z,70.80
2018-02-20T05:11:53.033Z,70.70
2018-02-20T05:14:21.520Z,70.90
2018-02-20T05:16:49.787Z,70.90
2018-02-20T05:19:18.063Z,71.00
2018-02-20T05:21:45.608Z,71.00
2018-02-20T05:24:13.112Z,70.80
2018-02-20T05:26:41.472Z,70.90
2018-02-20T05:29:09.178Z,71.00
2018-02-20T05:31:37.923Z,71.10
2018-02-20T05:34:06.223Z,71.10
2018-02-20T05:36:33.750Z,71.10
2018-02-20T05:39:02.168Z,71.60
2018-02-20T05:41:29.907Z,71.30
2018-02-20T05:43:57.466Z,71.30
2018-02-20T05:46:25.100Z,71.20
2018-02-20T05:48:52.608Z,71.30
2018-02-20T05:51:20.229Z,71.50
2018-02-20T05:53:48.944Z,71.40
2018-02-20T05:56:16.473Z,71.50
2018-02-20T05:58:44.046Z,71.50
2018-02-20T06:01:12.352Z,71.80
2018-02-20T06:03:39.916Z,71.70
2018-02-20T06:06:07.484Z,71.80
2018-02-20T06:08:35.064Z,71.90
2018-02-20T06:11:02.956Z,71.90
2018-02-20T06:13:30.453Z,71.90
2018-02-20T06:16:00.915Z,72.10
2018-02-20T06:18:28.719Z,72.40
2018-02-20T06:20:57.115Z,73.20
2018-02-20T06:23:24.844Z,72.50
2018-02-20T06:25:52.361Z,72.50
2018-02-20T06:28:19.914Z,72.70
2018-02-20T06:30:47.494Z,72.40
2018-02-20T06:33:15.036Z,72.60
2018-02-20T06:35:42.759Z,72.70
2018-02-20T06:38:10.361Z,72.40
2018-02-20T06:40:37.882Z,72.40
2018-02-20T06:43:05.440Z,72.50
2018-02-20T06:45:32.975Z,72.00
2018-02-20T06:48:00.539Z,71.70
2018-02-20T06:50:29.728Z,70.00
2018-02-20T06:52:57.297Z,70.00
2018-02-20T06:55:24.966Z,70.00
2018-02-20T06:57:52.703Z,69.30
2018-02-20T07:00:20.416Z,68.70
2018-02-20T07:02:48.656Z,68.40
2018-02-20T07:05:16.955Z,67.30
2018-02-20T07:07:44.535Z,67.30
2018-02-20T07:10:12.067Z,67.00
2018-02-20T07:15:13.627Z,65.70
2018-02-20T07:17:41.199Z,65.40
2018-02-20T07:20:08.720Z,64.90
2018-02-20T07:22:36.270Z,64.20
2018-02-20T07:25:03.800Z,64.00
2018-02-20T07:27:31.417Z,64.10
2018-02-20T07:29:59.029Z,63.80
2018-02-20T07:32:26.552Z,63.10
2018-02-20T07:34:54.141Z,63.50
2018-02-20T07:37:22.489Z,62.80
2018-02-20T07:39:50.086Z,62.80
2018-02-20T07:42:17.780Z,62.80
2018-02-20T07:44:45.355Z,62.80
2018-02-20T07:47:13.657Z,62.30
2018-02-20T07:49:41.266Z,62.10
2018-02-20T07:52:08.792Z,61.60
2018-02-20T07:54:37.635Z,61.10
2018-02-20T07:57:05.297Z,61.10
2018-02-20T07:59:32.934Z,60.60
2018-02-20T08:02:01.177Z,61.10
2018-02-20T08:04:28.744Z,61.20
2018-02-20T08:06:56.323Z,61.70
2018-02-20T08:09:23.865Z,61.40
2018-02-20T08:11:52.193Z,61.10
2018-02-20T08:14:19.728Z,61.10
2018-02-20T08:16:47.332Z,60.70
2018-02-20T08:19:14.950Z,60.30
2018-02-20T08:21:42.574Z,60.20
2018-02-20T08:24:10.256Z,59.90
2018-02-20T08:26:37.876Z,59.90
2018-02-20T08:29:05.579Z,59.40
2018-02-20T08:31:33.458Z,59.60
2018-02-20T08:34:01.026Z,58.90
2018-02-20T08:36:28.546Z,59.30
2018-02-20T08:38:56.889Z,59.70
2018-02-20T08:41:24.443Z,59.70
2018-02-20T08:43:52.270Z,59.30
2018-02-20T08:46:19.971Z,59.60
2018-02-20T08:48:48.210Z,59.50
2018-02-20T08:51:16.618Z,59.00
2018-02-20T08:53:44.146Z,58.90
2018-02-20T08:56:12.504Z,58.90
2018-02-20T08:58:39.995Z,58.90
2018-02-20T09:01:07.617Z,58.90
2018-02-20T09:03:35.358Z,58.90
2018-02-20T09:06:03.612Z,58.60
2018-02-20T09:08:31.357Z,58.50
2018-02-20T09:10:58.856Z,58.40
2018-02-20T09:13:26.422Z,58.40
2018-02-20T09:15:53.964Z,58.40
2018-02-20T09:18:21.795Z,58.40
2018-02-20T09:20:49.322Z,58.50
2018-02-20T09:23:16.905Z,58.80
2018-02-20T09:25:45.676Z,59.00
2018-02-20T09:28:13.647Z,58.90
2018-02-20T09:30:41.281Z,58.70
2018-02-20T09:33:08.813Z,58.60
2018-02-20T09:35:36.380Z,58.40
2018-02-20T09:38:03.922Z,59.10
2018-02-20T09:40:31.475Z,58.70
2018-02-20T09:42:59.017Z,58.40
2018-02-20T09:45:26.555Z,58.40
2018-02-20T09:47:54.690Z,58.20
2018-02-20T09:50:22.292Z,57.90
2018-02-20T09:52:51.350Z,57.40
2018-02-20T09:55:18.902Z,57.30
2018-02-20T09:57:46.397Z,58.20
2018-02-20T10:00:13.941Z,57.70
2018-02-20T10:02:42.808Z,57.70
2018-02-20T10:05:10.334Z,57.50
2018-02-20T10:07:38.815Z,57.70
2018-02-20T10:10:07.433Z,57.50
2018-02-20T10:12:34.957Z,57.50
2018-02-20T10:15:03.390Z,57.30
2018-02-20T10:17:31.246Z,57.30
2018-02-20T10:20:00.000Z,57.20
2018-02-20T10:22:27.664Z,57.20
2018-02-20T10:24:55.368Z,57.10
2018-02-20T10:27:22.911Z,56.80
2018-02-20T10:29:50.484Z,56.40
2018-02-20T10:32:19.271Z,56.80
2018-02-20T10:34:47.376Z,56.60
2018-02-20T10:37:14.904Z,56.60
2018-02-20T10:39:42.429Z,56.80
2018-02-20T10:42:10.058Z,56.90
2018-02-20T10:44:37.639Z,56.90
2018-02-20T10:47:05.166Z,56.70
2018-02-20T10:49:33.217Z,56.60
2018-02-20T10:52:00.760Z,56.80
2018-02-20T10:54:28.528Z,55.50
2018-02-20T10:56:56.223Z,55.50
2018-02-20T10:59:23.746Z,55.70
2018-02-20T11:01:51.278Z,55.70
2018-02-20T11:04:19.548Z,55.60
2018-02-20T11:06:47.145Z,55.60
2018-02-20T11:09:14.784Z,55.30
2018-02-20T11:11:45.129Z,54.60
2018-02-20T11:14:12.649Z,54.60
2018-02-20T11:16:40.176Z,54.70
2018-02-20T11:19:07.726Z,54.40
2018-02-20T11:21:35.293Z,54.30
2018-02-20T11:24:02.824Z,54.20
2018-02-20T11:26:30.363Z,53.80
2018-02-20T11:28:57.905Z,53.60
2018-02-20T11:31:25.473Z,53.20
2018-02-20T11:33:53.030Z,53.40
2018-02-20T11:36:20.775Z,53.40
2018-02-20T11:38:48.436Z,53.30
2018-02-20T11:41:16.176Z,52.90
2018-02-20T11:43:44.300Z,52.50
2018-02-20T11:46:11.844Z,52.00
2018-02-20T11:48:39.560Z,52.10
2018-02-20T11:51:07.116Z,51.90
2018-02-20T11:53:34.764Z,52.00
2018-02-20T11:56:02.286Z,51.70
2018-02-20T11:58:30.015Z,51.60
2018-02-20T12:00:57.667Z,51.50
2018-02-20T12:03:25.216Z,50.70
2018-02-20T12:05:52.895Z,50.40
2018-02-20T12:08:20.565Z,50.40
2018-02-20T12:10:48.173Z,50.60
2018-02-20T12:13:16.570Z,50.00
2018-02-20T12:15:44.084Z,50.00
2018-02-20T12:18:11.694Z,49.80
2018-02-20T12:20:39.218Z,49.70
2018-02-20T12:23:06.765Z,49.50
2018-02-20T12:25:34.366Z,49.50
2018-02-20T12:28:02.728Z,49.20
2018-02-20T12:30:30.536Z,49.80
2018-02-20T12:32:58.154Z,49.50
2018-02-20T12:35:25.786Z,49.10
2018-02-20T12:37:53.525Z,49.20
2018-02-20T12:40:21.044Z,48.90
2018-02-20T12:42:50.098Z,48.60
2018-02-20T12:45:17.720Z,48.60
2018-02-20T12:47:45.256Z,49.00
2018-02-20T12:50:12.989Z,48.60
2018-02-20T12:52:40.605Z,48.60
2018-02-20T12:55:08.218Z,48.90
2018-02-20T12:57:35.763Z,48.70
2018-02-20T13:00:06.391Z,48.80
2018-02-20T13:02:34.207Z,48.80
2018-02-20T13:05:01.781Z,48.70
2018-02-20T13:07:29.357Z,49.00
2018-02-20T13:09:56.915Z,49.40
2018-02-20T13:12:24.476Z,49.70
2018-02-20T13:14:52.956Z,50.00
2018-02-20T13:17:20.681Z,50.30
2018-02-20T13:19:49.026Z,50.30
2018-02-20T13:22:16.559Z,50.30
2018-02-20T13:24:44.097Z,50.40
2018-02-20T13:27:12.501Z,50.50
2018-02-20T13:29:40.961Z,51.10
2018-02-20T13:32:09.263Z,51.40
2018-02-20T13:34:36.917Z,51.40
2018-02-20T13:37:04.500Z,51.40
2018-02-20T13:39:32.047Z,51.60
2018-02-20T13:41:59.783Z,52.20
2018-02-20T13:44:27.624Z,51.50
2018-02-20T13:46:55.140Z,51.30
2018-02-20T13:49:22.748Z,51.20
2018-02-20T13:51:50.271Z,51.50
2018-02-20T13:54:17.884Z,51.60
2018-02-20T13:56:46.175Z,51.50
2018-02-20T13:59:14.060Z,51.50
2018-02-20T14:01:41.652Z,51.70
2018-02-20T14:04:09.192Z,51.00
2018-02-20T14:06:36.768Z,51.40
2018-02-20T14:09:04.593Z,50.90
2018-02-20T14:11:32.172Z,50.80
2018-02-20T14:13:59.933Z,50.90
2018-02-20T14:16:27.587Z,50.90
2018-02-20T14:18:55.184Z,50.60
2018-02-20T14:21:22.707Z,51.00
2018-02-20T14:23:50.320Z,51.10
2018-02-20T14:26:18.726Z,51.30
2018-02-20T14:28:46.275Z,51.30
2018-02-20T14:31:14.549Z,51.80
2018-02-20T14:33:42.862Z,51.40
2018-02-20T14:36:10.403Z,51.40
2018-02-20T14:38:38.283Z,51.40
2018-02-20T14:41:05.854Z,51.30
2018-02-20T14:43:33.344Z,51.60
2018-02-20T14:46:00.861Z,51.00
2018-02-20T14:48:28.439Z,51.20
2018-02-20T14:50:55.950Z,51.20
2018-02-20T14:53:23.602Z,51.30
2018-02-20T14:55:52.466Z,50.80
2018-02-20T14:58:19.999Z,50.90
2018-02-20T15:00:47.647Z,50.60
2018-02-20T15:03:15.187Z,50.40
2018-02-20T15:05:42.747Z,50.70
2018-02-20T15:08:10.591Z,49.60
2018-02-20T15:10:38.817Z,49.30
2018-02-20T15:13:06.505Z,49.10
2018-02-20T15:15:34.054Z,49.20
2018-02-20T15:18:01.674Z,49.20
2018-02-20T15:20:29.904Z,49.30
2018-02-20T15:22:57.462Z,49.50
2018-02-20T15:25:25.020Z,49.60
2018-02-20T15:27:52.551Z,49.20
2018-02-20T15:30:20.100Z,49.40
2018-02-20T15:32:47.798Z,49.40
2018-02-20T15:35:15.368Z,49.60
2018-02-20T15:37:42.917Z,49.20
2018-02-20T15:40:10.600Z,49.30
2018-02-20T15:42:38.123Z,49.70
2018-02-20T15:45:05.717Z,49.80
2018-02-20T15:47:33.262Z,50.00
2018-02-20T15:50:00.819Z,50.20
2018-02-20T15:52:28.691Z,49.70
2018-02-20T15:54:56.245Z,49.70
2018-02-20T15:57:23.751Z,48.80
2018-02-20T15:59:51.270Z,48.70
2018-02-20T16:02:18.826Z,48.70
2018-02-20T16:04:46.370Z,48.70
2018-02-20T16:07:13.902Z,48.60
2018-02-20T16:09:41.456Z,48.80
2018-02-20T16:12:09.009Z,48.80
2018-02-20T16:14:36.723Z,48.80
2018-02-20T16:17:04.337Z,48.90
2018-02-20T16:19:32.053Z,49.00
2018-02-20T16:21:59.660Z,49.30
2018-02-20T16:24:27.993Z,49.40
2018-02-20T16:26:56.391Z,49.40
2018-02-20T16:29:23.968Z,49.40
2018-02-20T16:31:51.681Z,49.40
2018-02-20T16:34:19.250Z,49.60
2018-02-20T16:36:47.000Z,49.60
2018-02-20T16:39:14.541Z,49.70
2018-02-20T16:41:42.924Z,50.10
2018-02-20T16:44:10.531Z,50.20
2018-02-20T16:46:39.263Z,50.40
2018-02-20T16:49:06.861Z,50.40
2018-02-20T16:51:34.374Z,50.80
2018-02-20T16:54:02.786Z,50.40
2018-02-20T16:56:30.760Z,50.70
2018-02-20T16:58:58.323Z,50.70
2018-02-20T17:01:25.880Z,50.70
2018-02-20T17:03:53.434Z,50.50
2018-02-20T17:06:20.974Z,50.50
2018-02-20T17:08:48.610Z,50.30
2018-02-20T17:11:16.164Z,50.30
2018-02-20T17:13:43.791Z,50.30
2018-02-20T17:16:11.349Z,50.50
2018-02-20T17:18:38.885Z,50.30
2018-02-20T17:21:06.402Z,50.70
2018-02-20T17:23:34.056Z,50.40
2018-02-20T17:26:01.568Z,50.80
2018-02-20T17:28:29.069Z,50.90
2018-02-20T17:30:56.597Z,50.90
2018-02-20T17:33:24.978Z,51.00
2018-02-20T17:35:52.677Z,51.50
2018-02-20T17:38:21.422Z,51.10
2018-02-20T17:40:49.073Z,50.90
2018-02-20T17:43:16.682Z,51.20
2018-02-20T17:45:44.354Z,51.20
2018-02-20T17:48:14.026Z,51.40
2018-02-20T17:50:41.584Z,51.40
2018-02-20T17:53:09.126Z,51.60
2018-02-20T17:55:36.714Z,51.80
2018-02-20T17:58:04.445Z,51.90
2018-02-20T18:00:31.977Z,52.20
2018-02-20T18:02:59.627Z,52.60
2018-02-20T18:05:27.148Z,52.60
2018-02-20T18:07:54.695Z,52.80
2018-02-20T18:10:22.220Z,53.30
2018-02-20T18:12:50.165Z,53.00
2018-02-20T18:15:17.866Z,53.30
2018-02-20T18:17:45.461Z,53.50
2018-02-20T18:20:13.250Z,53.50
2018-02-20T18:22:41.293Z,53.70
2018-02-20T18:25:08.994Z,53.70
2018-02-20T18:27:36.553Z,53.80
2018-02-20T18:30:06.458Z,54.10
2018-02-20T18:32:34.000Z,54.10
2018-02-20T18:35:01.625Z,54.30
2018-02-20T18:37:29.204Z,54.40
2018-02-20T18:39:56.757Z,54.70
2018-02-20T18:42:24.425Z,54.90
2018-02-20T18:44:51.996Z,55.30
2018-02-20T18:47:19.576Z,55.90
2018-02-20T18:49:47.260Z,55.70
2018-02-20T18:52:15.642Z,56.10
2018-02-20T18:54:43.261Z,56.20
2018-02-20T18:57:10.777Z,56.40
2018-02-20T18:59:38.580Z,56.60
2018-02-20T19:02:06.144Z,56.90
2018-02-20T19:04:33.941Z,57.00
2018-02-20T19:07:01.469Z,57.30
2018-02-20T19:09:29.032Z,57.40
2018-02-20T19:11:57.403Z,57.50
2018-02-20T19:14:26.026Z,57.80
2018-02-20T19:16:54.411Z,58.00
2018-02-20T19:19:22.146Z,58.40
2018-02-20T19:21:51.866Z,58.50
2018-02-20T19:24:19.504Z,58.80
2018-02-20T19:26:47.511Z,58.60
2018-02-20T19:29:15.950Z,58.80
2018-02-20T19:31:43.658Z,58.70
2018-02-20T19:34:11.606Z,58.40
2018-02-20T19:36:39.624Z,58.30
2018-02-20T19:39:08.922Z,58.40
2018-02-20T19:41:36.538Z,58.40
2018-02-20T19:44:04.121Z,58.30
2018-02-20T19:46:31.932Z,58.40
2018-02-20T19:48:59.515Z,58.30
2018-02-20T19:51:27.862Z,58.30
2018-02-20T19:53:55.749Z,58.20
2018-02-20T19:56:23.320Z,58.20
2018-02-20T19:58:50.921Z,58.40
2018-02-20T20:01:18.675Z,58.50
2018-02-20T20:03:46.245Z,58.50
2018-02-20T20:06:13.863Z,58.50
2018-02-20T20:08:42.457Z,58.60
2018-02-20T20:11:10.377Z,58.70
2018-02-20T20:13:38.183Z,59.20
2018-02-20T20:16:05.779Z,58.80
2018-02-20T20:18:35.512Z,58.80
2018-02-20T20:21:03.472Z,58.80
2018-02-20T20:23:32.445Z,58.90
2018-02-20T20:26:00.051Z,58.90
2018-02-20T20:28:27.606Z,59.00
2018-02-20T20:30:55.311Z,58.90
2018-02-20T20:33:22.889Z,59.20
2018-02-20T20:35:50.502Z,59.10
2018-02-20T20:38:18.152Z,59.30
2018-02-20T20:40:47.304Z,59.40
2018-02-20T20:43:15.079Z,59.40
2018-02-20T20:45:43.655Z,59.60
2018-02-20T20:48:11.282Z,59.50
2018-02-20T20:50:39.293Z,59.60
2018-02-20T20:53:07.339Z,59.70
2018-02-20T20:55:36.302Z,60.00
2018-02-20T20:58:04.101Z,59.90
2018-02-20T21:00:31.956Z,60.10
2018-02-20T21:03:00.074Z,60.10
2018-02-20T21:05:27.695Z,60.00
2018-02-20T21:07:55.325Z,60.20
2018-02-20T21:10:22.895Z,60.20
2018-02-20T21:12:50.576Z,60.30
2018-02-20T21:15:18.817Z,60.50
2018-02-20T21:17:46.543Z,60.60
2018-02-20T21:20:14.218Z,60.60
2018-02-20T21:22:41.949Z,60.80
2018-02-20T21:25:09.727Z,60.70
2018-02-20T21:27:37.565Z,60.90
2018-02-20T21:30:05.415Z,60.90
2018-02-20T21:32:33.408Z,60.80
2018-02-20T21:35:01.171Z,61.20
2018-02-20T21:37:28.791Z,61.30
2018-02-20T21:39:57.200Z,61.50
2018-02-20T21:42:24.967Z,61.30
2018-02-20T21:44:53.423Z,61.30
2018-02-20T21:47:21.457Z,61.50
2018-02-20T21:49:49.008Z,61.40
2018-02-20T21:52:16.826Z,61.70
2018-02-20T21:54:44.462Z,61.80
2018-02-20T21:57:11.993Z,61.90
2018-02-20T21:59:39.582Z,61.90
2018-02-20T22:02:07.384Z,62.10
2018-02-20T22:04:35.073Z,62.30
2018-02-20T22:07:02.687Z,62.40
2018-02-20T22:09:30.244Z,63.20
2018-02-20T22:11:58.152Z,62.50
2018-02-20T22:14:26.005Z,62.50
2018-02-20T22:16:54.225Z,62.50
2018-02-20T22:19:21.792Z,62.50
2018-02-20T22:21:49.898Z,62.50
2018-02-20T22:24:18.299Z,62.50
2018-02-20T22:26:45.847Z,62.60
2018-02-20T22:29:13.963Z,62.60
2018-02-20T22:31:42.597Z,62.70
2018-02-20T22:34:10.137Z,62.60
2018-02-20T22:36:37.847Z,62.80
2018-02-20T22:39:05.359Z,62.90
2018-02-20T22:41:33.203Z,63.10
2018-02-20T22:44:00.751Z,63.00
2018-02-20T22:46:28.390Z,63.10
2018-02-20T22:48:55.935Z,63.40
2018-02-20T22:51:23.613Z,63.30
2018-02-20T22:53:51.713Z,63.40
2018-02-20T22:56:19.994Z,63.40
2018-02-20T22:58:47.509Z,63.40
2018-02-20T23:01:15.023Z,63.50
2018-02-20T23:03:43.203Z,63.50
2018-02-20T23:06:10.793Z,63.50
2018-02-20T23:08:39.266Z,63.60
2018-02-20T23:11:07.000Z,63.60
2018-02-20T23:13:34.533Z,63.60
2018-02-20T23:16:02.710Z,63.60
2018-02-20T23:18:30.299Z,63.80
2018-02-20T23:20:58.643Z,63.80
2018-02-20T23:23:26.294Z,63.70
2018-02-20T23:25:54.253Z,63.70
2018-02-20T23:28:22.179Z,64.00
2018-02-20T23:30:49.771Z,63.90
2018-02-20T23:33:17.583Z,64.10
2018-02-20T23:35:45.536Z,64.10
2018-02-20T23:38:13.504Z,64.20
2018-02-20T23:40:41.091Z,64.00
2018-02-20T23:43:08.636Z,64.20
2018-02-20T23:45:36.157Z,64.10
2018-02-20T23:48:03.718Z,64.20
2018-02-20T23:50:31.258Z,64.20
2018-02-20T23:52:59.689Z,64.20
2018-02-20T23:55:27.256Z,64.20
2018-02-20T23:57:54.820Z,64.40
